Time;durP1;ratioP1;P1;durP2;ratioP2;P2;SDS_P1;SDS_P2;PMS_P1;PMS_P2;Temp;Humidity;BMP_temperature;BMP_pressure;BME280_temperature;BME280_humidity;BME280_pressure;Samples;Min_cycle;Max_cycle;Signal;HPM_P1;HPM_P2
2023/04/03 00:01:21;;;;;;;2.88;1.20;;;;;;;2.39;100.00;103326.88;4935715;29;20549;-80
2023/04/03 00:03:48;;;;;;;0.90;0.90;;;;;;;2.35;100.00;103328.31;4927295;29;20143;-81
2023/04/03 00:06:15;;;;;;;2.53;1.13;;;;;;;2.35;100.00;103323.13;4953190;29;20043;-80
2023/04/03 00:08:45;;;;;;;4.95;1.63;;;;;;;2.32;100.00;103323.78;4914127;28;20043;-78
2023/04/03 00:11:13;;;;;;;1.63;1.40;;;;;;;2.30;100.00;103333.16;4951722;29;20058;-78
2023/04/03 00:13:41;;;;;;;1.65;1.52;;;;;;;2.29;100.00;103328.75;4915831;29;20070;-79
2023/04/03 00:16:10;;;;;;;1.73;1.42;;;;;;;2.27;100.00;103332.03;4936656;29;20059;-78
2023/04/03 00:18:38;;;;;;;2.22;1.45;;;;;;;2.27;100.00;103326.81;4950192;29;20051;-79
2023/04/03 00:21:07;;;;;;;1.52;1.40;;;;;;;2.27;100.00;103334.63;4947637;29;20507;-78
2023/04/03 00:23:34;;;;;;;2.40;1.48;;;;;;;2.22;100.00;103331.69;4898495;29;20051;-79
2023/04/03 00:26:02;;;;;;;3.67;1.38;;;;;;;2.22;100.00;103333.38;4944141;29;20969;-78
2023/04/03 00:28:30;;;;;;;3.80;1.45;;;;;;;2.20;100.00;103328.06;4936773;28;20062;-78
2023/04/03 00:30:57;;;;;;;3.25;1.40;;;;;;;2.19;100.00;103339.22;4937776;29;20079;-79
2023/04/03 00:33:24;;;;;;;3.65;1.40;;;;;;;2.18;100.00;103334.84;4965491;28;20055;-78
2023/04/03 00:35:53;;;;;;;4.68;1.80;;;;;;;2.17;100.00;103333.00;4934690;29;20051;-78
2023/04/03 00:38:21;;;;;;;3.40;1.65;;;;;;;2.13;100.00;103331.88;4937263;29;20058;-78
2023/04/03 00:40:49;;;;;;;1.65;1.20;;;;;;;2.12;100.00;103332.66;4899573;29;20059;-79
2023/04/03 00:43:40;;;;;;;2.08;1.40;;;;;;;2.12;100.00;103349.97;4953384;28;20522;-79
2023/04/03 00:46:08;;;;;;;2.22;1.52;;;;;;;2.11;100.00;103343.84;4938659;29;20050;-80
2023/04/03 00:48:45;;;;;;;3.13;1.30;;;;;;;2.10;100.00;103349.84;4927125;29;20047;-80
2023/04/03 00:51:16;;;;;;;1.88;1.50;;;;;;;2.08;100.00;103343.63;4935712;29;20046;-80
2023/04/03 00:53:49;;;;;;;2.65;1.50;;;;;;;2.09;100.00;103339.31;4931001;29;20071;-80
2023/04/03 00:56:19;;;;;;;2.20;1.42;;;;;;;2.08;100.00;103348.84;4912841;28;20051;-81
2023/04/03 00:58:53;;;;;;;6.18;1.55;;;;;;;2.07;100.00;103347.00;4926149;29;20044;-80
2023/04/03 01:01:24;;;;;;;2.33;1.20;;;;;;;2.08;100.00;103358.31;4931436;29;20050;-78
2023/04/03 01:03:52;;;;;;;5.85;1.70;;;;;;;2.08;100.00;103351.44;4932607;29;20055;-79
2023/04/03 01:06:25;;;;;;;4.90;1.67;;;;;;;2.08;100.00;103348.84;4951609;29;20516;-80
2023/04/03 01:08:55;;;;;;;2.83;1.83;;;;;;;2.08;100.00;103348.84;4962531;28;20059;-80
2023/04/03 01:11:22;;;;;;;3.42;1.67;;;;;;;2.10;100.00;103346.34;4915824;28;21099;-79
2023/04/03 01:13:50;;;;;;;2.72;1.75;;;;;;;2.11;100.00;103353.34;4928961;29;20058;-79
2023/04/03 01:16:19;;;;;;;5.22;2.00;;;;;;;2.11;100.00;103355.97;4939094;29;20063;-79
2023/04/03 01:18:47;;;;;;;7.40;1.77;;;;;;;2.13;100.00;103364.78;4934439;29;20058;-79
2023/04/03 01:21:36;;;;;;;5.32;1.80;;;;;;;2.13;100.00;103354.38;4933637;29;20051;-79
2023/04/03 01:24:23;;;;;;;3.93;1.57;;;;;;;2.13;100.00;103364.78;4950302;29;20051;-80
2023/04/03 01:26:50;;;;;;;3.78;1.50;;;;;;;2.11;100.00;103363.75;4913910;28;20070;-79
2023/04/03 01:29:17;;;;;;;7.55;1.80;;;;;;;2.09;100.00;103360.13;4926400;29;20051;-80
2023/04/03 01:31:57;;;;;;;7.82;2.30;;;;;;;2.09;100.00;103362.72;4944680;28;20070;-80
2023/04/03 01:34:26;;;;;;;8.05;1.90;;;;;;;2.06;100.00;103355.63;4952991;29;20058;-79
2023/04/03 01:36:55;;;;;;;7.00;2.00;;;;;;;2.06;100.00;103359.88;4950739;29;20086;-79
2023/04/03 01:39:22;;;;;;;3.08;1.75;;;;;;;2.03;100.00;103350.16;4918513;29;20059;-79
2023/04/03 01:41:50;;;;;;;7.20;1.90;;;;;;;2.02;100.00;103356.13;4929924;29;20070;-79
2023/04/03 01:44:31;;;;;;;;;;;;;;;1.99;100.00;103353.31;4900484;29;20055;-77
2023/04/03 01:46:58;;;;;;;6.80;1.65;;;;;;;1.96;100.00;103353.06;4944233;28;20424;-80
2023/04/03 01:49:27;;;;;;;5.15;2.15;;;;;;;1.94;100.00;103359.84;4951904;29;20051;-80
2023/04/03 01:51:55;;;;;;;3.33;1.58;;;;;;;1.90;100.00;103349.97;4945099;29;20055;-80
2023/04/03 01:54:23;;;;;;;5.03;1.73;;;;;;;1.88;100.00;103354.16;4947915;29;20063;-80
2023/04/03 01:56:50;;;;;;;5.82;1.90;;;;;;;1.87;100.00;103367.94;4946958;28;20055;-80
2023/04/03 01:59:20;;;;;;;5.53;1.97;;;;;;;1.84;100.00;103362.50;4917674;28;20054;-80
2023/04/03 02:01:48;;;;;;;1.73;1.60;;;;;;;1.82;100.00;103362.38;4908609;29;20060;-79
2023/04/03 02:04:16;;;;;;;4.95;1.95;;;;;;;1.79;100.00;103361.22;4936299;28;20047;-79
2023/04/03 02:06:43;;;;;;;5.88;2.05;;;;;;;1.76;100.00;103367.09;4922536;29;20047;-79
2023/04/03 02:09:11;;;;;;;8.68;2.25;;;;;;;1.74;100.00;103363.47;4949904;29;20051;-79
2023/04/03 02:11:38;;;;;;;7.10;1.92;;;;;;;1.72;100.00;103376.34;4918779;29;20043;-79
2023/04/03 02:14:06;;;;;;;6.60;2.00;;;;;;;1.70;100.00;103375.31;4929585;29;20043;-79
2023/04/03 02:16:34;;;;;;;5.03;2.10;;;;;;;1.69;100.00;103380.41;4907490;29;20048;-80
2023/04/03 02:19:01;;;;;;;4.43;2.53;;;;;;;1.66;100.00;103375.84;4930640;29;20726;-80
2023/04/03 02:21:30;;;;;;;6.22;2.05;;;;;;;1.66;100.00;103382.75;4928233;29;20059;-80
2023/04/03 02:23:57;;;;;;;3.80;1.80;;;;;;;1.63;100.00;103388.59;4946954;29;20469;-81
2023/04/03 02:26:25;;;;;;;4.70;2.08;;;;;;;1.60;100.00;103384.84;4951156;29;20055;-79
2023/04/03 02:28:53;;;;;;;6.35;1.77;;;;;;;1.60;100.00;103382.25;4931323;29;20055;-79
2023/04/03 02:31:20;;;;;;;7.70;2.50;;;;;;;1.58;100.00;103381.22;4900877;29;20374;-78
2023/04/03 02:33:48;;;;;;;3.83;1.92;;;;;;;1.54;100.00;103377.47;4936129;29;20056;-78
2023/04/03 02:36:16;;;;;;;3.03;2.05;;;;;;;1.53;100.00;103380.84;4950955;28;20055;-78
2023/04/03 02:38:49;;;;;;;3.95;1.95;;;;;;;1.50;100.00;103388.41;4931214;29;20056;-78
2023/04/03 02:41:17;;;;;;;4.88;2.00;;;;;;;1.49;100.00;103394.38;4950838;28;20505;-78
2023/04/03 02:43:47;;;;;;;3.25;2.20;;;;;;;1.46;100.00;103389.84;4919277;29;20048;-78
2023/04/03 02:46:16;;;;;;;4.40;2.35;;;;;;;1.43;100.00;103389.59;4953701;28;20051;-78
2023/04/03 02:48:45;;;;;;;6.10;2.50;;;;;;;1.40;100.00;103386.75;4905633;28;20051;-79
2023/04/03 02:51:12;;;;;;;5.43;2.35;;;;;;;1.37;100.00;103394.28;4932128;29;20047;-78
2023/04/03 02:53:40;;;;;;;6.82;2.60;;;;;;;1.34;100.00;103388.84;4932959;29;20052;-78
2023/04/03 02:56:13;;;;;;;6.57;2.28;;;;;;;1.31;100.00;103384.31;4926453;29;20058;-78
2023/04/03 02:58:40;;;;;;;5.32;2.30;;;;;;;1.26;100.00;103408.09;4952063;29;20053;-78
2023/04/03 03:01:09;;;;;;;8.82;2.33;;;;;;;1.22;100.00;103404.34;4921536;29;20047;-78
2023/04/03 03:03:36;;;;;;;13.40;2.60;;;;;;;1.18;100.00;103404.88;4912607;28;20434;-78
2023/04/03 03:06:06;;;;;;;6.60;2.25;;;;;;;1.17;100.00;103405.63;4922682;29;20525;-79
2023/04/03 03:08:34;;;;;;;5.38;2.70;;;;;;;1.14;100.00;103405.41;4952714;29;20425;-80
2023/04/03 03:11:02;;;;;;;5.75;3.85;;;;;;;1.14;100.00;103419.28;4948456;29;20040;-81
2023/04/03 03:13:31;;;;;;;5.65;2.20;;;;;;;1.15;100.00;103421.13;4939035;29;20055;-80
2023/04/03 03:15:58;;;;;;;4.38;2.10;;;;;;;1.14;100.00;103416.69;4941696;29;20055;-78
2023/04/03 03:18:26;;;;;;;5.07;2.25;;;;;;;1.13;100.00;103412.25;4952308;29;20051;-80
2023/04/03 03:20:55;;;;;;;5.65;2.20;;;;;;;1.12;100.00;103419.94;4905126;28;20795;-80
2023/04/03 03:23:24;;;;;;;4.68;2.05;;;;;;;1.10;100.00;103422.41;4945345;29;20062;-80
2023/04/03 03:26:01;;;;;;;5.35;2.03;;;;;;;1.08;100.00;103415.28;4942434;29;20051;-78
2023/04/03 03:28:29;;;;;;;3.85;1.92;;;;;;;1.07;100.00;103434.22;4937762;29;20062;-80
2023/04/03 03:31:00;;;;;;;7.57;2.58;;;;;;;1.04;100.00;103433.97;4923881;29;20066;-78
2023/04/03 03:33:28;;;;;;;9.70;2.15;;;;;;;1.04;100.00;103432.31;4933546;29;20078;-79
2023/04/03 03:35:56;;;;;;;6.97;2.55;;;;;;;1.02;100.00;103430.34;4903692;28;20148;-78
2023/04/03 03:38:24;;;;;;;3.55;2.00;;;;;;;0.99;100.00;103428.41;4966651;28;20047;-79
2023/04/03 03:40:52;;;;;;;5.70;1.98;;;;;;;0.99;100.00;103430.09;4946723;29;20043;-80
2023/04/03 03:43:21;;;;;;;3.83;2.42;;;;;;;0.97;100.00;103429.97;4923114;29;20104;-80
2023/04/03 03:45:52;;;;;;;7.15;2.20;;;;;;;0.94;100.00;103428.00;4951726;28;20522;-78
2023/04/03 03:48:20;;;;;;;9.75;2.85;;;;;;;0.92;100.00;103432.16;4953517;29;20074;-78
2023/04/03 03:50:49;;;;;;;8.25;2.28;;;;;;;0.91;100.00;103426.88;4924380;28;20058;-79
2023/04/03 03:53:19;;;;;;;3.63;2.17;;;;;;;0.91;100.00;103432.06;4954012;28;20051;-79
2023/04/03 03:55:47;;;;;;;3.78;2.30;;;;;;;0.89;100.00;103433.59;4950996;29;20054;-79
2023/04/03 03:58:16;;;;;;;5.78;2.28;;;;;;;0.87;100.00;103437.75;4922103;29;20062;-78
2023/04/03 04:00:43;;;;;;;5.38;2.28;;;;;;;0.86;100.00;103438.53;4936657;29;20047;-79
2023/04/03 04:03:11;;;;;;;6.65;2.35;;;;;;;0.83;100.00;103440.88;4907804;28;20387;-79
2023/04/03 04:05:39;;;;;;;6.55;2.20;;;;;;;0.81;100.00;103440.72;4901051;29;20062;-79
2023/04/03 04:08:07;;;;;;;6.90;2.28;;;;;;;0.80;100.00;103444.13;4927051;29;20046;-79
2023/04/03 04:10:37;;;;;;;6.15;2.30;;;;;;;0.79;100.00;103444.88;4939300;29;20034;-78
2023/04/03 04:13:05;;;;;;;7.45;2.55;;;;;;;0.78;100.00;103443.09;4953047;29;20051;-78
2023/04/03 04:15:33;;;;;;;6.07;2.60;;;;;;;0.77;100.00;103444.75;4953642;29;20047;-77
2023/04/03 04:18:02;;;;;;;5.85;2.22;;;;;;;0.77;100.00;103447.34;4917824;29;20422;-77
2023/04/03 04:20:31;;;;;;;7.55;2.95;;;;;;;0.78;100.00;103453.47;4908407;29;20507;-80
2023/04/03 04:22:59;;;;;;;7.30;2.30;;;;;;;0.76;100.00;103445.56;4922549;29;20074;-79
2023/04/03 04:25:27;;;;;;;6.43;1.92;;;;;;;0.78;100.00;103443.09;4950820;29;20051;-79
2023/04/03 04:27:54;;;;;;;7.05;2.50;;;;;;;0.76;100.00;103442.06;4920450;29;20055;-78
2023/04/03 04:30:22;;;;;;;6.55;2.60;;;;;;;0.76;100.00;103440.34;4945434;29;20059;-79
2023/04/03 04:32:50;;;;;;;9.07;3.55;;;;;;;0.75;100.00;103435.94;4930801;29;20047;-77
2023/04/03 04:35:18;;;;;;;4.95;2.72;;;;;;;0.75;100.00;103441.13;4915494;29;20477;-78
2023/04/03 04:37:48;;;;;;;8.35;2.55;;;;;;;0.76;100.00;103442.97;4945183;29;20107;-79
2023/04/03 04:40:16;;;;;;;5.65;2.25;;;;;;;0.74;100.00;103447.13;4919551;29;20051;-78
2023/04/03 04:42:44;;;;;;;8.73;2.58;;;;;;;0.74;100.00;103444.50;4952500;29;20040;-77
2023/04/03 04:45:12;;;;;;;6.13;2.33;;;;;;;0.74;100.00;103447.13;4917579;29;20047;-78
2023/04/03 04:47:42;;;;;;;;;;;;;;;0.73;100.00;103442.69;4952631;29;20050;-78
2023/04/03 04:50:11;;;;;;;5.05;2.47;;;;;;;0.74;100.00;103448.81;4919847;29;19926;-78
2023/04/03 04:52:39;;;;;;;7.80;3.28;;;;;;;0.74;100.00;103449.72;4947233;29;20055;-78
2023/04/03 04:55:08;;;;;;;6.63;2.30;;;;;;;0.75;100.00;103456.69;4925703;29;20059;-78
2023/04/03 04:57:36;;;;;;;7.65;2.83;;;;;;;0.75;100.00;103467.06;4951739;29;20043;-77
2023/04/03 05:00:06;;;;;;;8.30;2.60;;;;;;;0.74;100.00;103472.16;4923252;29;20056;-77
2023/04/03 05:02:34;;;;;;;7.97;2.42;;;;;;;0.73;100.00;103463.44;4945977;29;20050;-79
2023/04/03 05:05:03;;;;;;;5.32;2.42;;;;;;;0.73;100.00;103468.63;4928993;29;20052;-79
2023/04/03 05:07:35;;;;;;;5.38;2.38;;;;;;;0.75;100.00;103466.19;4917593;28;20058;-79
2023/04/03 05:10:03;;;;;;;8.38;2.83;;;;;;;0.75;100.00;103474.88;4933675;29;20510;-78
2023/04/03 05:12:32;;;;;;;4.82;1.95;;;;;;;0.75;100.00;103480.06;4945873;28;20055;-78
2023/04/03 05:15:03;;;;;;;10.27;3.08;;;;;;;0.76;100.00;103481.88;4961613;28;20062;-78
2023/04/03 05:17:31;;;;;;;7.45;4.60;;;;;;;0.76;100.00;103484.50;4915033;29;20070;-77
2023/04/03 05:20:00;;;;;;;5.82;2.30;;;;;;;0.78;100.00;103476.84;4904331;29;20953;-79
2023/04/03 05:22:28;;;;;;;3.80;2.20;;;;;;;0.76;100.00;103468.91;4906728;29;20040;-80
2023/04/03 05:25:02;;;;;;;8.25;2.33;;;;;;;0.79;100.00;103483.81;4923132;29;20413;-79
2023/04/03 05:27:29;;;;;;;6.55;2.63;;;;;;;0.80;100.00;103492.53;4951927;29;20062;-79
2023/04/03 05:29:59;;;;;;;5.63;2.40;;;;;;;0.81;100.00;103487.47;4919335;29;20055;-79
2023/04/03 05:32:27;;;;;;;8.98;3.25;;;;;;;0.82;100.00;103485.78;4936404;29;20059;-79
2023/04/03 05:35:22;;;;;;;3.92;2.15;;;;;;;0.83;100.00;103491.09;4954629;28;20058;-79
2023/04/03 05:37:53;;;;;;;8.60;2.70;;;;;;;0.85;100.00;103488.63;4923768;28;20051;-79
2023/04/03 05:40:21;;;;;;;5.53;2.35;;;;;;;0.86;100.00;103483.56;4914536;29;20055;-79
2023/04/03 05:42:53;;;;;;;4.40;2.50;;;;;;;0.88;100.00;103487.22;4953125;29;20044;-78
2023/04/03 05:45:24;;;;;;;6.32;2.30;;;;;;;0.89;100.00;103496.84;4952036;28;20056;-78
2023/04/03 05:47:51;;;;;;;8.68;2.60;;;;;;;0.94;100.00;103497.22;4940139;28;20055;-79
2023/04/03 05:50:23;;;;;;;9.20;2.63;;;;;;;0.95;100.00;103502.53;4960994;28;20070;-79
2023/04/03 05:52:56;;;;;;;8.13;2.67;;;;;;;0.98;100.00;103507.06;4907869;28;20039;-79
2023/04/03 05:55:25;;;;;;;5.80;2.30;;;;;;;1.00;100.00;103499.41;4931797;29;20510;-79
2023/04/03 05:57:53;;;;;;;9.20;2.88;;;;;;;1.06;100.00;103506.06;4903888;29;20058;-79
2023/04/03 06:00:22;;;;;;;6.78;2.33;;;;;;;1.09;100.00;103505.38;4935991;29;20070;-79
2023/04/03 06:02:59;;;;;;;10.82;2.50;;;;;;;1.12;100.00;103511.75;4954867;28;20419;-78
2023/04/03 06:05:26;;;;;;;10.55;3.47;;;;;;;1.14;100.00;103509.28;4924438;29;20059;-78
2023/04/03 06:07:56;;;;;;;9.35;3.17;;;;;;;1.18;100.00;103516.56;4924967;28;20735;-79
2023/04/03 06:10:24;;;;;;;4.70;2.60;;;;;;;1.20;100.00;103517.59;4951241;29;20808;-79
2023/04/03 06:12:51;;;;;;;6.43;2.63;;;;;;;1.24;100.00;103518.75;4909553;28;20047;-80
2023/04/03 06:15:20;;;;;;;6.50;3.03;;;;;;;1.27;100.00;103517.34;4953580;29;20055;-80
2023/04/03 06:17:48;;;;;;;6.63;2.90;;;;;;;1.32;100.00;103525.50;4935468;29;20050;-79
2023/04/03 06:20:16;;;;;;;8.93;2.33;;;;;;;1.36;100.00;103511.97;4938993;29;20063;-78
2023/04/03 06:22:45;;;;;;;6.05;3.25;;;;;;;1.39;100.00;103512.25;4929034;29;20047;-79
2023/04/03 06:25:17;;;;;;;8.57;2.60;;;;;;;1.43;100.00;103511.72;4919375;28;20047;-78
2023/04/03 06:27:45;;;;;;;5.70;2.72;;;;;;;1.48;100.00;103518.22;4951971;28;20418;-81
2023/04/03 06:30:12;;;;;;;6.82;2.65;;;;;;;1.54;100.00;103523.91;4932435;29;20059;-79
2023/04/03 06:32:41;;;;;;;5.85;2.45;;;;;;;1.59;100.00;103531.16;4959357;29;20066;-79
2023/04/03 06:35:09;;;;;;;6.05;2.45;;;;;;;1.64;100.00;103535.97;4941723;29;20064;-80
2023/04/03 06:37:37;;;;;;;9.13;3.15;;;;;;;1.70;100.00;103535.56;4959653;29;20047;-80
2023/04/03 06:40:05;;;;;;;8.50;3.08;;;;;;;1.74;100.00;103525.56;4946556;28;20055;-79
2023/04/03 06:42:32;;;;;;;8.15;3.00;;;;;;;1.83;100.00;103527.09;4938742;29;20050;-78
2023/04/03 06:45:09;;;;;;;7.18;2.63;;;;;;;2.17;100.00;103535.94;4935883;29;20055;-80
2023/04/03 06:47:37;;;;;;;4.88;2.35;;;;;;;2.55;100.00;103530.25;4925720;29;20066;-79
2023/04/03 06:50:06;;;;;;;7.00;2.15;;;;;;;2.84;100.00;103523.84;4940456;29;20055;-78
2023/04/03 06:52:33;;;;;;;7.72;2.30;;;;;;;3.29;100.00;103525.56;4938407;29;20043;-80
2023/04/03 06:55:01;;;;;;;9.13;2.17;;;;;;;3.61;100.00;103533.19;4937293;29;20056;-80
2023/04/03 06:57:28;;;;;;;8.32;3.08;;;;;;;3.79;100.00;103536.25;4912107;28;20055;-79
2023/04/03 06:59:59;;;;;;;5.05;2.40;;;;;;;3.92;100.00;103542.38;4943602;29;20059;-78
2023/04/03 07:02:27;;;;;;;4.40;2.40;;;;;;;3.97;100.00;103536.72;4943226;29;20409;-80
2023/04/03 07:04:54;;;;;;;5.38;3.03;;;;;;;4.13;100.00;103550.88;4975111;28;20058;-79
2023/04/03 07:07:22;;;;;;;7.97;2.45;;;;;;;4.34;100.00;103555.03;4941790;29;20414;-79
2023/04/03 07:09:50;;;;;;;4.25;2.65;;;;;;;4.42;100.00;103546.06;4924812;29;20071;-79
2023/04/03 07:12:18;;;;;;;6.25;2.80;;;;;;;4.42;100.00;103552.97;4926625;29;20051;-80
2023/04/03 07:14:46;;;;;;;5.95;2.80;;;;;;;4.47;100.00;103551.59;4929754;29;20056;-78
2023/04/03 07:17:14;;;;;;;5.60;2.30;;;;;;;4.52;100.00;103555.47;4926851;29;20055;-78
2023/04/03 07:19:41;;;;;;;5.63;2.50;;;;;;;4.60;100.00;103558.59;4940223;29;20059;-78
2023/04/03 07:22:10;;;;;;;10.50;3.00;;;;;;;4.82;100.00;103566.22;4928692;29;20047;-78
2023/04/03 07:24:38;;;;;;;8.50;2.65;;;;;;;5.20;100.00;103574.16;4955893;29;20046;-80
2023/04/03 07:27:08;;;;;;;11.88;3.05;;;;;;;5.45;100.00;103576.72;4898696;29;20055;-81
2023/04/03 07:29:36;;;;;;;5.32;2.33;;;;;;;5.56;100.00;103566.09;4936534;29;20530;-80
2023/04/03 07:32:05;;;;;;;8.32;2.47;;;;;;;5.62;100.00;103567.41;4958420;29;20047;-78
2023/04/03 07:34:32;;;;;;;4.35;2.13;;;;;;;5.85;100.00;103574.16;4949564;29;20631;-78
2023/04/03 07:37:00;;;;;;;19.48;2.42;;;;;;;6.00;100.00;103576.00;4956436;29;20047;-78
2023/04/03 07:39:29;;;;;;;4.88;2.53;;;;;;;6.08;100.00;103584.38;4945787;29;20051;-79
2023/04/03 07:41:56;;;;;;;2.65;2.03;;;;;;;6.31;100.00;103578.00;4906834;28;20055;-78
2023/04/03 07:44:24;;;;;;;6.10;2.40;;;;;;;6.45;100.00;103582.41;4929932;29;20055;-79
2023/04/03 07:46:52;;;;;;;5.97;2.30;;;;;;;6.60;100.00;103572.91;4955394;29;20055;-78
2023/04/03 07:49:19;;;;;;;3.53;2.13;;;;;;;6.88;100.00;103577.28;4945720;29;20054;-79
2023/04/03 07:51:48;;;;;;;3.67;1.65;;;;;;;7.10;100.00;103575.94;4962097;29;20054;-78
2023/04/03 07:54:15;;;;;;;7.65;2.00;;;;;;;7.04;100.00;103568.63;4946283;29;20058;-79
2023/04/03 07:56:43;;;;;;;6.65;1.98;;;;;;;6.95;100.00;103568.94;4901992;29;20059;-79
2023/04/03 07:59:11;;;;;;;6.85;2.33;;;;;;;6.91;100.00;103573.91;4956976;29;20061;-79
2023/04/03 08:01:39;;;;;;;4.53;2.10;;;;;;;7.01;100.00;103568.41;4936126;29;20054;-79
2023/04/03 08:04:07;;;;;;;10.50;2.17;;;;;;;7.10;100.00;103574.22;4954856;29;20496;-79
2023/04/03 08:06:36;;;;;;;3.05;1.92;;;;;;;7.26;100.00;103576.09;4943465;29;20102;-78
2023/04/03 08:09:16;;;;;;;6.60;2.28;;;;;;;7.32;100.00;103572.94;4955905;29;20047;-78
2023/04/03 08:11:45;;;;;;;6.85;2.95;;;;;;;7.40;100.00;103576.91;4930616;29;20051;-78
2023/04/03 08:14:18;;;;;;;4.70;2.25;;;;;;;7.54;100.00;103569.84;4953029;29;20047;-78
2023/04/03 08:16:47;;;;;;;6.78;1.95;;;;;;;7.62;100.00;103573.84;4946434;29;20058;-79
2023/04/03 08:19:17;;;;;;;6.72;1.60;;;;;;;7.61;99.81;103569.41;4952963;29;20054;-77
2023/04/03 08:21:54;;;;;;;5.13;1.83;;;;;;;7.48;97.19;103575.63;4938276;29;20064;-79
2023/04/03 08:24:21;;;;;;;2.85;1.80;;;;;;;7.30;97.49;103578.06;4951815;28;20276;-79
2023/04/03 08:26:49;;;;;;;4.32;1.85;;;;;;;7.39;99.07;103570.75;4904955;29;20070;-79
2023/04/03 08:29:17;;;;;;;7.82;2.03;;;;;;;7.54;98.79;103569.84;4910306;29;20323;-79
2023/04/03 08:31:45;;;;;;;4.78;2.00;;;;;;;7.67;98.72;103576.72;4924948;29;20067;-79
2023/04/03 08:34:13;;;;;;;7.60;2.00;;;;;;;7.95;100.00;103576.63;4951923;29;20051;-80
2023/04/03 08:36:40;;;;;;;3.92;2.28;;;;;;;8.26;100.00;103573.09;4961491;29;20039;-78
2023/04/03 08:39:11;;;;;;;4.32;1.88;;;;;;;8.32;96.59;103568.22;4957810;29;20051;-80
2023/04/03 08:41:46;;;;;;;2.88;1.60;;;;;;;8.29;93.48;103570.66;4954254;28;20058;-80
2023/04/03 08:44:25;;;;;;;4.05;1.90;;;;;;;8.43;92.76;103571.44;4885566;29;20498;-79
2023/04/03 08:47:04;;;;;;;3.70;1.75;;;;;;;8.56;90.73;103566.97;4959124;29;20117;-80
2023/04/03 08:49:51;;;;;;;3.63;1.77;;;;;;;8.69;85.14;103562.38;4955134;28;20184;-79
2023/04/03 08:52:27;;;;;;;2.13;1.13;;;;;;;8.81;84.90;103567.38;4957147;29;20055;-79
2023/04/03 08:55:01;;;;;;;2.17;1.52;;;;;;;8.58;79.57;103553.88;4958270;28;20735;-79
2023/04/03 08:57:35;;;;;;;2.22;1.13;;;;;;;8.65;80.69;103557.78;4913895;29;20055;-78
2023/04/03 09:00:17;;;;;;;4.57;1.65;;;;;;;8.64;75.96;103558.59;4960398;29;20051;-78
2023/04/03 09:02:54;;;;;;;3.88;1.70;;;;;;;8.68;73.93;103553.59;4950644;29;20051;-78
2023/04/03 09:05:46;;;;;;;7.13;1.50;;;;;;;8.75;73.29;103552.19;4950782;29;20081;-80
2023/04/03 09:08:22;;;;;;;2.80;1.63;;;;;;;8.83;74.75;103555.22;4966275;28;20043;-80
2023/04/03 09:10:58;;;;;;;2.83;1.73;;;;;;;8.84;74.08;103551.78;4950812;29;20055;-79
2023/04/03 09:13:48;;;;;;;2.50;1.73;;;;;;;8.67;70.53;103553.50;4926194;28;20434;-78
2023/04/03 09:16:42;;;;;;;1.58;1.27;;;;;;;8.60;63.79;103552.28;4957001;29;20051;-80
2023/04/03 09:19:32;;;;;;;6.82;1.63;;;;;;;8.47;67.96;103555.03;4946954;28;20058;-79
2023/04/03 09:22:12;;;;;;;4.82;2.10;;;;;;;8.44;70.66;103554.88;4954236;29;20066;-80
2023/04/03 09:24:41;;;;;;;2.72;1.67;;;;;;;8.46;71.21;103558.50;4940055;29;20066;-80
2023/04/03 09:27:11;;;;;;;3.28;1.58;;;;;;;8.50;71.82;103550.84;4958899;28;20414;-80
2023/04/03 09:29:47;;;;;;;1.58;1.42;;;;;;;8.52;71.94;103549.19;4930178;28;20047;-80
2023/04/03 09:32:29;;;;;;;2.95;1.63;;;;;;;8.49;70.35;103550.78;4935050;29;20063;-79
2023/04/03 09:35:16;;;;;;;4.55;2.00;;;;;;;8.45;71.42;103554.03;4943324;28;20056;-79
2023/04/03 09:38:01;;;;;;;2.80;1.65;;;;;;;8.44;66.61;103561.03;4947564;28;20059;-79
2023/04/03 09:40:38;;;;;;;4.68;1.30;;;;;;;8.03;63.92;103559.56;4970790;28;20066;-80
2023/04/03 09:43:28;;;;;;;2.22;1.00;;;;;;;7.76;60.00;103559.78;4938995;29;20083;-80
2023/04/03 09:46:34;;;;;;;1.77;1.30;;;;;;;7.41;59.09;103550.75;4930510;28;20068;-80
2023/04/03 09:49:05;;;;;;;2.58;1.08;;;;;;;7.39;61.96;103555.03;4966438;28;20055;-78
2023/04/03 09:51:37;;;;;;;2.80;1.00;;;;;;;7.47;60.63;103551.94;4938090;29;20055;-80
2023/04/03 09:54:39;;;;;;;3.90;1.48;;;;;;;7.49;60.23;103548.59;4956835;29;20053;-79
2023/04/03 09:57:11;;;;;;;4.85;1.50;;;;;;;7.47;66.37;103550.22;4961862;28;20063;-79
2023/04/03 09:59:44;;;;;;;5.95;2.38;;;;;;;7.47;67.66;103546.69;4937497;29;20065;-81
2023/04/03 10:02:24;;;;;;;4.20;2.15;;;;;;;7.39;66.73;103561.97;4957394;28;20049;-78
2023/04/03 10:04:51;;;;;;;4.55;1.67;;;;;;;7.26;68.40;103552.47;4951872;29;20055;-78
2023/04/03 10:07:37;;;;;;;5.88;1.50;;;;;;;7.27;68.58;103549.03;4952679;29;20043;-78
2023/04/03 10:10:26;;;;;;;3.22;1.20;;;;;;;7.28;67.19;103558.72;4946791;29;20058;-77
2023/04/03 10:13:11;;;;;;;4.72;1.70;;;;;;;7.18;65.80;103557.25;4954224;29;20035;-78
2023/04/03 10:15:58;;;;;;;4.15;1.27;;;;;;;6.97;65.82;103553.31;4936551;29;20155;-79
2023/04/03 10:18:48;;;;;;;3.85;1.60;;;;;;;6.86;66.58;103550.03;4971747;28;20050;-79
2023/04/03 10:21:24;;;;;;;2.58;1.55;;;;;;;6.75;64.24;103543.25;4953961;29;20062;-80
2023/04/03 10:24:14;;;;;;;1.17;1.08;;;;;;;6.70;62.70;103540.31;4957571;29;20055;-78
2023/04/03 10:27:17;;;;;;;1.50;1.35;;;;;;;6.69;60.81;103534.97;4957489;29;20061;-79
2023/04/03 10:30:17;;;;;;;1.92;1.10;;;;;;;6.65;57.68;103546.97;4953152;29;20055;-78
2023/04/03 10:32:49;;;;;;;1.98;1.00;;;;;;;6.57;59.28;103537.75;4943456;28;20096;-79
2023/04/03 10:35:47;;;;;;;1.10;1.00;;;;;;;6.60;60.07;103531.00;4961452;29;20478;-80
2023/04/03 10:38:52;;;;;;;2.60;1.73;;;;;;;6.83;61.25;103524.53;4950385;29;20162;-79
2023/04/03 10:41:29;;;;;;;2.67;1.20;;;;;;;6.95;58.66;103523.47;4942368;29;20533;-79
2023/04/03 10:44:31;;;;;;;1.60;1.17;;;;;;;7.05;51.37;103524.94;4938352;29;20051;-80
2023/04/03 10:47:11;;;;;;;1.05;0.95;;;;;;;7.16;54.51;103529.13;4933816;28;20058;-79
2023/04/03 10:50:18;;;;;;;1.30;0.93;;;;;;;7.11;54.97;103526.22;4943515;29;20058;-80
2023/04/03 10:53:13;;;;;;;2.72;1.30;;;;;;;7.21;52.33;103527.69;4898887;29;20059;-80
2023/04/03 10:56:08;;;;;;;2.45;0.90;;;;;;;7.17;50.71;103525.69;4956740;28;20048;-78
2023/04/03 10:58:45;;;;;;;2.40;1.25;;;;;;;7.27;56.06;103512.31;4924112;29;20063;-79
2023/04/03 11:01:19;;;;;;;1.20;1.10;;;;;;;7.38;54.50;103521.72;4953767;28;20063;-80
2023/04/03 11:03:53;;;;;;;1.33;0.90;;;;;;;7.29;51.33;103518.53;4948754;28;20058;-79
2023/04/03 11:06:24;;;;;;;3.00;1.15;;;;;;;7.27;53.69;103512.31;4968376;29;20047;-81
2023/04/03 11:09:21;;;;;;;1.08;0.77;;;;;;;7.27;53.34;103507.06;4941820;29;20063;-80
2023/04/03 11:11:53;;;;;;;1.77;1.23;;;;;;;7.30;54.55;103499.38;4925669;29;20064;-80
2023/04/03 11:14:28;;;;;;;3.50;1.10;;;;;;;7.44;54.44;103489.69;4953814;28;20051;-77
2023/04/03 11:17:05;;;;;;;2.53;0.90;;;;;;;7.63;53.22;103494.28;4956261;29;20062;-78
2023/04/03 11:19:43;;;;;;;2.10;1.13;;;;;;;7.73;56.16;103485.22;4918166;29;20048;-78
2023/04/03 11:22:41;;;;;;;1.40;1.20;;;;;;;7.74;51.91;103474.81;4978917;28;20066;-78
2023/04/03 11:25:11;;;;;;;1.70;0.82;;;;;;;7.84;55.59;103485.81;4961230;29;20050;-78
2023/04/03 11:27:45;;;;;;;5.38;0.93;;;;;;;7.98;56.78;103479.66;4960942;29;20406;-78
2023/04/03 11:30:33;;;;;;;2.20;1.08;;;;;;;8.10;54.73;103463.66;4953818;29;20064;-80
2023/04/03 11:33:29;;;;;;;4.47;1.48;;;;;;;8.24;54.01;103461.78;4960095;29;20062;-79
2023/04/03 11:36:12;;;;;;;1.70;1.10;;;;;;;8.35;55.94;103461.53;4945256;29;20054;-78
2023/04/03 11:39:09;;;;;;;3.97;1.02;;;;;;;8.40;55.39;103453.91;4961022;28;20425;-77
2023/04/03 11:41:37;;;;;;;3.13;1.25;;;;;;;8.47;56.08;103453.47;4948175;29;20057;-78
2023/04/03 11:44:43;;;;;;;1.00;0.90;;;;;;;8.41;46.54;103442.56;4964002;28;20058;-78
2023/04/03 11:47:45;;;;;;;1.00;0.82;;;;;;;8.26;48.33;103445.31;4953247;28;20066;-81
2023/04/03 11:50:33;;;;;;;1.90;1.08;;;;;;;8.32;52.48;103439.47;4956392;29;20051;-80
2023/04/03 11:53:05;;;;;;;1.70;1.00;;;;;;;8.44;54.41;103427.00;4962782;28;20047;-80